sensor_id;sensor_type;location;lat;lon;timestamp;temperature;humidity
36690;DHT22;22676;51.120;3.702;2023-07-30T00:01:20;25.80;50.30
36690;DHT22;22676;51.120;3.702;2023-07-30T00:03:46;25.80;50.40
36690;DHT22;22676;51.120;3.702;2023-07-30T00:06:11;25.80;50.40
36690;DHT22;22676;51.120;3.702;2023-07-30T00:08:37;25.80;50.40
36690;DHT22;22676;51.120;3.702;2023-07-30T00:11:03;25.80;50.50
36690;DHT22;22676;51.120;3.702;2023-07-30T00:13:28;25.80;50.50
36690;DHT22;22676;51.120;3.702;2023-07-30T00:15:54;25.70;50.50
36690;DHT22;22676;51.120;3.702;2023-07-30T00:18:19;25.80;50.60
36690;DHT22;22676;51.120;3.702;2023-07-30T00:20:45;25.80;50.60
36690;DHT22;22676;51.120;3.702;2023-07-30T00:23:11;25.80;50.60
36690;DHT22;22676;51.120;3.702;2023-07-30T00:25:36;25.70;50.50
36690;DHT22;22676;51.120;3.702;2023-07-30T00:28:02;25.70;50.60
36690;DHT22;22676;51.120;3.702;2023-07-30T00:30:28;25.80;50.70
36690;DHT22;22676;51.120;3.702;2023-07-30T00:32:54;25.80;50.70
36690;DHT22;22676;51.120;3.702;2023-07-30T00:35:19;25.80;50.80
36690;DHT22;22676;51.120;3.702;2023-07-30T00:37:45;25.70;50.70
36690;DHT22;22676;51.120;3.702;2023-07-30T00:40:11;25.70;50.70
36690;DHT22;22676;51.120;3.702;2023-07-30T00:42:37;25.60;50.60
36690;DHT22;22676;51.120;3.702;2023-07-30T00:45:03;25.70;50.60
36690;DHT22;22676;51.120;3.702;2023-07-30T00:47:29;25.70;50.60
36690;DHT22;22676;51.120;3.702;2023-07-30T00:49:55;25.60;50.60
36690;DHT22;22676;51.120;3.702;2023-07-30T00:52:21;25.70;50.70
36690;DHT22;22676;51.120;3.702;2023-07-30T00:54:48;25.70;50.70
36690;DHT22;22676;51.120;3.702;2023-07-30T00:57:15;25.60;50.70
36690;DHT22;22676;51.120;3.702;2023-07-30T00:59:42;25.60;50.70
36690;DHT22;22676;51.120;3.702;2023-07-30T01:02:08;25.70;50.90
36690;DHT22;22676;51.120;3.702;2023-07-30T01:04:34;25.60;50.80
36690;DHT22;22676;51.120;3.702;2023-07-30T01:07:03;25.70;50.90
36690;DHT22;22676;51.120;3.702;2023-07-30T01:09:28;25.60;50.90
36690;DHT22;22676;51.120;3.702;2023-07-30T01:11:55;25.60;51.10
36690;DHT22;22676;51.120;3.702;2023-07-30T01:14:21;25.60;51.10
36690;DHT22;22676;51.120;3.702;2023-07-30T01:16:48;25.60;51.10
36690;DHT22;22676;51.120;3.702;2023-07-30T01:19:14;25.50;51.20
36690;DHT22;22676;51.120;3.702;2023-07-30T01:21:40;25.50;51.30
36690;DHT22;22676;51.120;3.702;2023-07-30T01:24:06;25.50;51.40
36690;DHT22;22676;51.120;3.702;2023-07-30T01:26:40;25.40;51.40
36690;DHT22;22676;51.120;3.702;2023-07-30T01:29:11;25.40;51.50
36690;DHT22;22676;51.120;3.702;2023-07-30T01:31:39;25.40;51.50
36690;DHT22;22676;51.120;3.702;2023-07-30T01:34:06;25.40;51.60
36690;DHT22;22676;51.120;3.702;2023-07-30T01:36:33;25.40;51.60
36690;DHT22;22676;51.120;3.702;2023-07-30T01:38:59;25.40;51.60
36690;DHT22;22676;51.120;3.702;2023-07-30T01:41:25;25.40;51.50
36690;DHT22;22676;51.120;3.702;2023-07-30T01:43:51;25.40;51.30
36690;DHT22;22676;51.120;3.702;2023-07-30T01:46:17;25.40;51.40
36690;DHT22;22676;51.120;3.702;2023-07-30T01:48:42;25.40;51.40
36690;DHT22;22676;51.120;3.702;2023-07-30T01:51:08;25.30;51.40
36690;DHT22;22676;51.120;3.702;2023-07-30T01:53:33;25.30;51.50
36690;DHT22;22676;51.120;3.702;2023-07-30T01:55:59;25.40;51.50
36690;DHT22;22676;51.120;3.702;2023-07-30T01:58:25;25.30;51.50
36690;DHT22;22676;51.120;3.702;2023-07-30T02:00:50;25.40;51.60
36690;DHT22;22676;51.120;3.702;2023-07-30T02:03:16;25.40;51.60
36690;DHT22;22676;51.120;3.702;2023-07-30T02:05:41;25.40;51.60
36690;DHT22;22676;51.120;3.702;2023-07-30T02:08:07;25.40;51.60
36690;DHT22;22676;51.120;3.702;2023-07-30T02:10:33;25.40;51.60
36690;DHT22;22676;51.120;3.702;2023-07-30T02:12:59;25.40;51.60
36690;DHT22;22676;51.120;3.702;2023-07-30T02:15:24;25.40;51.60
36690;DHT22;22676;51.120;3.702;2023-07-30T02:17:50;25.40;51.70
36690;DHT22;22676;51.120;3.702;2023-07-30T02:20:16;25.30;51.60
36690;DHT22;22676;51.120;3.702;2023-07-30T02:22:41;25.40;51.70
36690;DHT22;22676;51.120;3.702;2023-07-30T02:25:07;25.30;51.60
36690;DHT22;22676;51.120;3.702;2023-07-30T02:27:33;25.30;51.60
36690;DHT22;22676;51.120;3.702;2023-07-30T02:29:58;25.40;51.70
36690;DHT22;22676;51.120;3.702;2023-07-30T02:32:24;25.40;51.60
36690;DHT22;22676;51.120;3.702;2023-07-30T02:34:50;25.40;51.60
36690;DHT22;22676;51.120;3.702;2023-07-30T02:37:15;25.40;51.60
36690;DHT22;22676;51.120;3.702;2023-07-30T02:39:41;25.40;51.60
36690;DHT22;22676;51.120;3.702;2023-07-30T02:42:06;25.30;51.50
36690;DHT22;22676;51.120;3.702;2023-07-30T02:44:32;25.30;51.40
36690;DHT22;22676;51.120;3.702;2023-07-30T02:46:58;25.30;51.40
36690;DHT22;22676;51.120;3.702;2023-07-30T02:49:23;25.30;51.30
36690;DHT22;22676;51.120;3.702;2023-07-30T02:51:49;25.30;51.40
36690;DHT22;22676;51.120;3.702;2023-07-30T02:54:15;25.30;51.40
36690;DHT22;22676;51.120;3.702;2023-07-30T02:56:46;25.30;51.40
36690;DHT22;22676;51.120;3.702;2023-07-30T02:59:11;25.30;51.40
36690;DHT22;22676;51.120;3.702;2023-07-30T03:01:37;25.30;51.50
36690;DHT22;22676;51.120;3.702;2023-07-30T03:04:04;25.30;51.50
36690;DHT22;22676;51.120;3.702;2023-07-30T03:06:29;25.30;51.50
36690;DHT22;22676;51.120;3.702;2023-07-30T03:08:55;25.30;51.60
36690;DHT22;22676;51.120;3.702;2023-07-30T03:11:22;25.30;51.60
36690;DHT22;22676;51.120;3.702;2023-07-30T03:13:48;25.30;51.60
36690;DHT22;22676;51.120;3.702;2023-07-30T03:16:13;25.30;51.60
36690;DHT22;22676;51.120;3.702;2023-07-30T03:18:39;25.30;51.60
36690;DHT22;22676;51.120;3.702;2023-07-30T03:21:05;25.30;51.60
36690;DHT22;22676;51.120;3.702;2023-07-30T03:23:30;25.30;51.70
36690;DHT22;22676;51.120;3.702;2023-07-30T03:25:57;25.30;51.70
36690;DHT22;22676;51.120;3.702;2023-07-30T03:28:23;25.30;51.70
36690;DHT22;22676;51.120;3.702;2023-07-30T03:30:48;25.30;51.70
36690;DHT22;22676;51.120;3.702;2023-07-30T03:33:14;25.30;51.70
36690;DHT22;22676;51.120;3.702;2023-07-30T03:35:40;25.30;51.80
36690;DHT22;22676;51.120;3.702;2023-07-30T03:38:06;25.20;51.70
36690;DHT22;22676;51.120;3.702;2023-07-30T03:40:31;25.20;51.70
36690;DHT22;22676;51.120;3.702;2023-07-30T03:42:57;25.20;51.60
36690;DHT22;22676;51.120;3.702;2023-07-30T03:45:23;25.20;51.50
36690;DHT22;22676;51.120;3.702;2023-07-30T03:47:48;25.20;51.40
36690;DHT22;22676;51.120;3.702;2023-07-30T03:50:14;25.20;51.50
36690;DHT22;22676;51.120;3.702;2023-07-30T03:52:40;25.20;51.50
36690;DHT22;22676;51.120;3.702;2023-07-30T03:55:05;25.20;51.60
36690;DHT22;22676;51.120;3.702;2023-07-30T03:57:31;25.20;51.60
36690;DHT22;22676;51.120;3.702;2023-07-30T03:59:57;25.20;51.60
36690;DHT22;22676;51.120;3.702;2023-07-30T04:02:22;25.20;51.70
36690;DHT22;22676;51.120;3.702;2023-07-30T04:04:48;25.20;51.70
36690;DHT22;22676;51.120;3.702;2023-07-30T04:07:15;25.20;51.80
36690;DHT22;22676;51.120;3.702;2023-07-30T04:09:41;25.20;51.80
36690;DHT22;22676;51.120;3.702;2023-07-30T04:12:07;25.20;51.80
36690;DHT22;22676;51.120;3.702;2023-07-30T04:14:32;25.20;51.80
36690;DHT22;22676;51.120;3.702;2023-07-30T04:16:58;25.20;51.90
36690;DHT22;22676;51.120;3.702;2023-07-30T04:19:24;25.20;52.40
36690;DHT22;22676;51.120;3.702;2023-07-30T04:21:49;25.20;51.90
36690;DHT22;22676;51.120;3.702;2023-07-30T04:24:15;25.20;51.90
36690;DHT22;22676;51.120;3.702;2023-07-30T04:26:40;25.20;51.90
36690;DHT22;22676;51.120;3.702;2023-07-30T04:29:06;25.20;51.90
36690;DHT22;22676;51.120;3.702;2023-07-30T04:31:32;25.20;51.90
36690;DHT22;22676;51.120;3.702;2023-07-30T04:33:58;25.10;51.90
36690;DHT22;22676;51.120;3.702;2023-07-30T04:36:24;25.10;51.90
36690;DHT22;22676;51.120;3.702;2023-07-30T04:38:50;25.10;51.90
36690;DHT22;22676;51.120;3.702;2023-07-30T04:41:15;25.10;51.90
36690;DHT22;22676;51.120;3.702;2023-07-30T04:43:42;25.10;51.70
36690;DHT22;22676;51.120;3.702;2023-07-30T04:46:08;25.10;51.60
36690;DHT22;22676;51.120;3.702;2023-07-30T04:48:34;25.10;51.60
36690;DHT22;22676;51.120;3.702;2023-07-30T04:50:59;25.10;51.70
36690;DHT22;22676;51.120;3.702;2023-07-30T04:53:25;25.10;51.70
36690;DHT22;22676;51.120;3.702;2023-07-30T04:55:59;25.10;51.70
36690;DHT22;22676;51.120;3.702;2023-07-30T04:58:25;25.10;51.70
36690;DHT22;22676;51.120;3.702;2023-07-30T05:00:51;25.10;51.80
36690;DHT22;22676;51.120;3.702;2023-07-30T05:03:16;25.10;51.80
36690;DHT22;22676;51.120;3.702;2023-07-30T05:05:42;25.10;51.80
36690;DHT22;22676;51.120;3.702;2023-07-30T05:08:08;25.10;51.80
36690;DHT22;22676;51.120;3.702;2023-07-30T05:10:33;25.10;51.90
36690;DHT22;22676;51.120;3.702;2023-07-30T05:12:59;25.10;51.80
36690;DHT22;22676;51.120;3.702;2023-07-30T05:15:25;25.10;51.80
36690;DHT22;22676;51.120;3.702;2023-07-30T05:17:51;25.10;51.80
36690;DHT22;22676;51.120;3.702;2023-07-30T05:20:16;25.10;51.80
36690;DHT22;22676;51.120;3.702;2023-07-30T05:22:42;25.10;51.80
36690;DHT22;22676;51.120;3.702;2023-07-30T05:25:08;25.10;51.90
36690;DHT22;22676;51.120;3.702;2023-07-30T05:27:35;25.10;51.90
36690;DHT22;22676;51.120;3.702;2023-07-30T05:30:01;25.10;51.90
36690;DHT22;22676;51.120;3.702;2023-07-30T05:32:27;25.10;51.90
36690;DHT22;22676;51.120;3.702;2023-07-30T05:34:52;25.10;51.90
36690;DHT22;22676;51.120;3.702;2023-07-30T05:37:18;25.10;51.90
36690;DHT22;22676;51.120;3.702;2023-07-30T05:39:44;25.10;51.90
36690;DHT22;22676;51.120;3.702;2023-07-30T05:42:09;25.00;51.80
36690;DHT22;22676;51.120;3.702;2023-07-30T05:44:35;25.00;51.70
36690;DHT22;22676;51.120;3.702;2023-07-30T05:47:00;25.00;51.70
36690;DHT22;22676;51.120;3.702;2023-07-30T05:49:26;25.00;51.70
36690;DHT22;22676;51.120;3.702;2023-07-30T05:51:52;25.00;51.80
36690;DHT22;22676;51.120;3.702;2023-07-30T05:54:17;25.10;51.80
36690;DHT22;22676;51.120;3.702;2023-07-30T05:56:43;25.10;51.80
36690;DHT22;22676;51.120;3.702;2023-07-30T05:59:09;25.10;51.80
36690;DHT22;22676;51.120;3.702;2023-07-30T06:01:35;25.00;51.80
36690;DHT22;22676;51.120;3.702;2023-07-30T06:04:00;25.10;51.90
36690;DHT22;22676;51.120;3.702;2023-07-30T06:06:26;25.00;51.90
36690;DHT22;22676;51.120;3.702;2023-07-30T06:08:54;25.10;52.00
36690;DHT22;22676;51.120;3.702;2023-07-30T06:11:20;25.00;52.00
36690;DHT22;22676;51.120;3.702;2023-07-30T06:13:46;25.00;52.10
36690;DHT22;22676;51.120;3.702;2023-07-30T06:16:13;25.10;52.00
36690;DHT22;22676;51.120;3.702;2023-07-30T06:18:38;25.00;52.10
36690;DHT22;22676;51.120;3.702;2023-07-30T06:21:04;25.00;52.30
36690;DHT22;22676;51.120;3.702;2023-07-30T06:23:30;25.00;52.30
36690;DHT22;22676;51.120;3.702;2023-07-30T06:25:55;25.10;52.40
36690;DHT22;22676;51.120;3.702;2023-07-30T06:28:21;25.00;52.30
36690;DHT22;22676;51.120;3.702;2023-07-30T06:30:46;25.00;52.90
36690;DHT22;22676;51.120;3.702;2023-07-30T06:33:13;25.00;52.50
36690;DHT22;22676;51.120;3.702;2023-07-30T06:35:38;25.00;52.50
36690;DHT22;22676;51.120;3.702;2023-07-30T06:38:07;25.10;52.50
36690;DHT22;22676;51.120;3.702;2023-07-30T06:40:33;25.00;52.50
36690;DHT22;22676;51.120;3.702;2023-07-30T06:42:59;25.00;52.70
36690;DHT22;22676;51.120;3.702;2023-07-30T06:45:25;25.00;52.80
36690;DHT22;22676;51.120;3.702;2023-07-30T06:47:51;25.00;52.90
36690;DHT22;22676;51.120;3.702;2023-07-30T06:50:16;25.00;53.00
36690;DHT22;22676;51.120;3.702;2023-07-30T06:52:42;25.00;53.00
36690;DHT22;22676;51.120;3.702;2023-07-30T06:55:08;25.00;53.10
36690;DHT22;22676;51.120;3.702;2023-07-30T06:57:33;25.00;53.10
36690;DHT22;22676;51.120;3.702;2023-07-30T06:59:59;25.00;53.10
36690;DHT22;22676;51.120;3.702;2023-07-30T07:02:26;25.00;53.10
36690;DHT22;22676;51.120;3.702;2023-07-30T07:04:51;25.00;53.10
36690;DHT22;22676;51.120;3.702;2023-07-30T07:07:17;25.00;53.10
36690;DHT22;22676;51.120;3.702;2023-07-30T07:09:43;25.00;53.10
36690;DHT22;22676;51.120;3.702;2023-07-30T07:12:08;25.00;53.10
36690;DHT22;22676;51.120;3.702;2023-07-30T07:14:34;25.00;53.30
36690;DHT22;22676;51.120;3.702;2023-07-30T07:17:00;25.00;53.30
36690;DHT22;22676;51.120;3.702;2023-07-30T07:19:25;25.00;53.30
36690;DHT22;22676;51.120;3.702;2023-07-30T07:21:51;25.00;53.30
36690;DHT22;22676;51.120;3.702;2023-07-30T07:24:16;25.00;53.20
36690;DHT22;22676;51.120;3.702;2023-07-30T07:26:42;25.00;53.20
36690;DHT22;22676;51.120;3.702;2023-07-30T07:29:09;25.00;53.20
36690;DHT22;22676;51.120;3.702;2023-07-30T07:31:35;25.00;53.20
36690;DHT22;22676;51.120;3.702;2023-07-30T07:34:01;25.00;53.10
36690;DHT22;22676;51.120;3.702;2023-07-30T07:36:26;25.00;53.10
36690;DHT22;22676;51.120;3.702;2023-07-30T07:38:52;25.00;53.00
36690;DHT22;22676;51.120;3.702;2023-07-30T07:41:18;25.00;53.00
36690;DHT22;22676;51.120;3.702;2023-07-30T07:43:45;25.00;53.00
36690;DHT22;22676;51.120;3.702;2023-07-30T07:46:11;25.00;53.00
36690;DHT22;22676;51.120;3.702;2023-07-30T07:48:43;25.00;52.90
36690;DHT22;22676;51.120;3.702;2023-07-30T07:51:10;25.00;53.00
36690;DHT22;22676;51.120;3.702;2023-07-30T07:53:37;25.00;53.00
36690;DHT22;22676;51.120;3.702;2023-07-30T07:56:02;25.00;53.00
36690;DHT22;22676;51.120;3.702;2023-07-30T07:58:29;25.10;52.90
36690;DHT22;22676;51.120;3.702;2023-07-30T08:00:55;25.10;52.80
36690;DHT22;22676;51.120;3.702;2023-07-30T08:03:21;25.10;52.90
36690;DHT22;22676;51.120;3.702;2023-07-30T08:05:48;25.10;52.90
36690;DHT22;22676;51.120;3.702;2023-07-30T08:08:14;25.10;52.80
36690;DHT22;22676;51.120;3.702;2023-07-30T08:10:40;25.10;52.90
36690;DHT22;22676;51.120;3.702;2023-07-30T08:13:09;25.10;53.00
36690;DHT22;22676;51.120;3.702;2023-07-30T08:15:35;25.20;53.10
36690;DHT22;22676;51.120;3.702;2023-07-30T08:18:01;25.10;53.10
36690;DHT22;22676;51.120;3.702;2023-07-30T08:20:26;25.20;53.30
36690;DHT22;22676;51.120;3.702;2023-07-30T08:22:52;25.20;53.30
36690;DHT22;22676;51.120;3.702;2023-07-30T08:25:18;25.20;53.30
36690;DHT22;22676;51.120;3.702;2023-07-30T08:27:44;25.20;53.40
36690;DHT22;22676;51.120;3.702;2023-07-30T08:30:10;25.20;53.30
36690;DHT22;22676;51.120;3.702;2023-07-30T08:32:36;25.20;53.40
36690;DHT22;22676;51.120;3.702;2023-07-30T08:35:01;25.20;53.40
36690;DHT22;22676;51.120;3.702;2023-07-30T08:37:28;25.20;53.30
36690;DHT22;22676;51.120;3.702;2023-07-30T08:39:53;25.20;53.30
36690;DHT22;22676;51.120;3.702;2023-07-30T08:42:19;25.20;53.40
36690;DHT22;22676;51.120;3.702;2023-07-30T08:44:45;25.30;53.40
36690;DHT22;22676;51.120;3.702;2023-07-30T08:47:11;25.30;53.40
36690;DHT22;22676;51.120;3.702;2023-07-30T08:49:36;25.30;53.20
36690;DHT22;22676;51.120;3.702;2023-07-30T08:52:03;25.30;53.20
36690;DHT22;22676;51.120;3.702;2023-07-30T08:54:33;25.30;52.90
36690;DHT22;22676;51.120;3.702;2023-07-30T08:56:59;25.30;53.00
36690;DHT22;22676;51.120;3.702;2023-07-30T08:59:27;25.30;53.10
36690;DHT22;22676;51.120;3.702;2023-07-30T09:01:55;25.30;53.10
36690;DHT22;22676;51.120;3.702;2023-07-30T09:04:22;25.40;52.90
36690;DHT22;22676;51.120;3.702;2023-07-30T09:06:48;25.40;52.90
36690;DHT22;22676;51.120;3.702;2023-07-30T09:09:14;25.40;52.70
36690;DHT22;22676;51.120;3.702;2023-07-30T09:11:40;25.40;52.70
36690;DHT22;22676;51.120;3.702;2023-07-30T09:14:06;25.40;52.70
36690;DHT22;22676;51.120;3.702;2023-07-30T09:16:33;25.40;52.70
36690;DHT22;22676;51.120;3.702;2023-07-30T09:18:58;25.40;52.60
36690;DHT22;22676;51.120;3.702;2023-07-30T09:21:34;25.40;52.50
36690;DHT22;22676;51.120;3.702;2023-07-30T09:24:03;25.50;52.40
36690;DHT22;22676;51.120;3.702;2023-07-30T09:26:42;25.50;52.50
36690;DHT22;22676;51.120;3.702;2023-07-30T09:29:09;25.50;52.20
36690;DHT22;22676;51.120;3.702;2023-07-30T09:31:49;25.50;52.30
36690;DHT22;22676;51.120;3.702;2023-07-30T09:34:21;25.60;52.30
36690;DHT22;22676;51.120;3.702;2023-07-30T09:36:49;25.60;52.30
36690;DHT22;22676;51.120;3.702;2023-07-30T09:39:23;25.60;52.20
36690;DHT22;22676;51.120;3.702;2023-07-30T09:41:58;25.60;52.00
36690;DHT22;22676;51.120;3.702;2023-07-30T09:44:25;25.60;52.00
36690;DHT22;22676;51.120;3.702;2023-07-30T09:46:51;25.70;51.80
36690;DHT22;22676;51.120;3.702;2023-07-30T09:49:17;25.70;51.50
36690;DHT22;22676;51.120;3.702;2023-07-30T09:51:44;25.70;51.40
36690;DHT22;22676;51.120;3.702;2023-07-30T09:54:11;25.70;51.30
36690;DHT22;22676;51.120;3.702;2023-07-30T09:56:38;25.70;51.30
36690;DHT22;22676;51.120;3.702;2023-07-30T09:59:05;25.80;51.20
36690;DHT22;22676;51.120;3.702;2023-07-30T10:01:33;25.80;51.20
36690;DHT22;22676;51.120;3.702;2023-07-30T10:04:07;25.80;51.20
36690;DHT22;22676;51.120;3.702;2023-07-30T10:06:33;25.80;51.00
36690;DHT22;22676;51.120;3.702;2023-07-30T10:09:02;25.80;50.60
36690;DHT22;22676;51.120;3.702;2023-07-30T10:11:28;25.70;50.90
36690;DHT22;22676;51.120;3.702;2023-07-30T10:13:54;25.70;50.90
36690;DHT22;22676;51.120;3.702;2023-07-30T10:16:25;25.70;51.00
36690;DHT22;22676;51.120;3.702;2023-07-30T10:18:56;25.80;51.10
36690;DHT22;22676;51.120;3.702;2023-07-30T10:21:27;25.80;50.90
36690;DHT22;22676;51.120;3.702;2023-07-30T10:24:05;25.80;51.00
36690;DHT22;22676;51.120;3.702;2023-07-30T10:26:34;25.80;50.90
36690;DHT22;22676;51.120;3.702;2023-07-30T10:31:41;25.80;50.90
36690;DHT22;22676;51.120;3.702;2023-07-30T10:34:10;25.80;51.00
36690;DHT22;22676;51.120;3.702;2023-07-30T10:39:13;25.90;50.40
36690;DHT22;22676;51.120;3.702;2023-07-30T10:41:39;25.90;50.00
36690;DHT22;22676;51.120;3.702;2023-07-30T10:44:05;25.90;49.90
36690;DHT22;22676;51.120;3.702;2023-07-30T10:46:31;25.90;48.90
36690;DHT22;22676;51.120;3.702;2023-07-30T10:48:57;25.90;48.30
36690;DHT22;22676;51.120;3.702;2023-07-30T10:51:23;25.90;48.20
36690;DHT22;22676;51.120;3.702;2023-07-30T10:53:50;25.90;48.10
36690;DHT22;22676;51.120;3.702;2023-07-30T10:56:21;25.90;47.70
36690;DHT22;22676;51.120;3.702;2023-07-30T10:58:53;25.90;47.20
36690;DHT22;22676;51.120;3.702;2023-07-30T11:01:19;25.90;47.10
36690;DHT22;22676;51.120;3.702;2023-07-30T11:03:49;25.80;47.00
36690;DHT22;22676;51.120;3.702;2023-07-30T11:06:21;25.80;47.10
36690;DHT22;22676;51.120;3.702;2023-07-30T11:08:47;25.80;46.90
36690;DHT22;22676;51.120;3.702;2023-07-30T11:11:13;25.80;47.60
36690;DHT22;22676;51.120;3.702;2023-07-30T11:13:46;25.80;48.10
36690;DHT22;22676;51.120;3.702;2023-07-30T11:16:13;25.80;48.40
36690;DHT22;22676;51.120;3.702;2023-07-30T11:18:40;25.80;48.70
36690;DHT22;22676;51.120;3.702;2023-07-30T11:21:08;25.80;49.20
36690;DHT22;22676;51.120;3.702;2023-07-30T11:23:35;25.90;49.00
36690;DHT22;22676;51.120;3.702;2023-07-30T11:26:02;25.90;49.00
36690;DHT22;22676;51.120;3.702;2023-07-30T11:28:32;25.80;49.10
36690;DHT22;22676;51.120;3.702;2023-07-30T11:31:30;25.80;49.00
36690;DHT22;22676;51.120;3.702;2023-07-30T11:33:56;25.90;48.50
36690;DHT22;22676;51.120;3.702;2023-07-30T11:36:25;25.90;48.80
36690;DHT22;22676;51.120;3.702;2023-07-30T11:38:51;25.90;49.00
36690;DHT22;22676;51.120;3.702;2023-07-30T11:41:20;25.90;48.30
36690;DHT22;22676;51.120;3.702;2023-07-30T11:43:48;25.90;48.50
36690;DHT22;22676;51.120;3.702;2023-07-30T11:46:16;26.00;48.30
36690;DHT22;22676;51.120;3.702;2023-07-30T11:48:45;26.00;47.90
36690;DHT22;22676;51.120;3.702;2023-07-30T11:51:27;26.00;47.40
36690;DHT22;22676;51.120;3.702;2023-07-30T11:54:00;26.00;46.60
36690;DHT22;22676;51.120;3.702;2023-07-30T11:56:29;26.10;47.00
36690;DHT22;22676;51.120;3.702;2023-07-30T11:59:04;26.10;46.40
36690;DHT22;22676;51.120;3.702;2023-07-30T12:01:32;26.10;45.70
36690;DHT22;22676;51.120;3.702;2023-07-30T12:04:01;26.10;46.00
36690;DHT22;22676;51.120;3.702;2023-07-30T12:06:44;26.10;46.50
36690;DHT22;22676;51.120;3.702;2023-07-30T12:09:18;26.10;46.70
36690;DHT22;22676;51.120;3.702;2023-07-30T12:11:57;26.20;46.60
36690;DHT22;22676;51.120;3.702;2023-07-30T12:14:48;26.20;46.80
36690;DHT22;22676;51.120;3.702;2023-07-30T12:17:14;26.20;46.70
36690;DHT22;22676;51.120;3.702;2023-07-30T12:19:41;26.20;46.80
36690;DHT22;22676;51.120;3.702;2023-07-30T12:22:07;26.20;46.40
36690;DHT22;22676;51.120;3.702;2023-07-30T12:24:32;26.20;46.10
36690;DHT22;22676;51.120;3.702;2023-07-30T12:26:58;26.20;46.00
36690;DHT22;22676;51.120;3.702;2023-07-30T12:29:25;26.20;45.80
36690;DHT22;22676;51.120;3.702;2023-07-30T12:31:51;26.20;45.40
36690;DHT22;22676;51.120;3.702;2023-07-30T12:34:22;26.30;45.60
36690;DHT22;22676;51.120;3.702;2023-07-30T12:36:48;26.20;45.60
36690;DHT22;22676;51.120;3.702;2023-07-30T12:39:14;26.30;45.70
36690;DHT22;22676;51.120;3.702;2023-07-30T12:41:40;26.30;45.60
36690;DHT22;22676;51.120;3.702;2023-07-30T12:44:05;26.30;45.40
36690;DHT22;22676;51.120;3.702;2023-07-30T12:46:32;26.40;45.40
36690;DHT22;22676;51.120;3.702;2023-07-30T12:48:59;26.40;44.90
36690;DHT22;22676;51.120;3.702;2023-07-30T12:51:32;26.40;45.70
36690;DHT22;22676;51.120;3.702;2023-07-30T12:53:58;26.40;44.30
36690;DHT22;22676;51.120;3.702;2023-07-30T12:56:23;26.40;44.00
36690;DHT22;22676;51.120;3.702;2023-07-30T12:58:49;26.40;43.70
36690;DHT22;22676;51.120;3.702;2023-07-30T13:01:15;26.30;43.50
36690;DHT22;22676;51.120;3.702;2023-07-30T13:03:40;26.40;44.10
36690;DHT22;22676;51.120;3.702;2023-07-30T13:06:11;26.40;44.20
36690;DHT22;22676;51.120;3.702;2023-07-30T13:08:38;26.50;44.60
36690;DHT22;22676;51.120;3.702;2023-07-30T13:11:04;26.50;44.50
36690;DHT22;22676;51.120;3.702;2023-07-30T13:13:29;26.60;44.10
36690;DHT22;22676;51.120;3.702;2023-07-30T13:15:55;26.80;43.80
36690;DHT22;22676;51.120;3.702;2023-07-30T13:18:23;26.90;43.50
36690;DHT22;22676;51.120;3.702;2023-07-30T13:20:49;27.00;43.40
36690;DHT22;22676;51.120;3.702;2023-07-30T13:23:15;27.10;43.50
36690;DHT22;22676;51.120;3.702;2023-07-30T13:25:41;27.20;43.30
36690;DHT22;22676;51.120;3.702;2023-07-30T13:28:07;27.20;43.30
36690;DHT22;22676;51.120;3.702;2023-07-30T13:30:33;27.20;43.10
36690;DHT22;22676;51.120;3.702;2023-07-30T13:32:58;27.20;43.10
36690;DHT22;22676;51.120;3.702;2023-07-30T13:35:24;27.20;42.70
36690;DHT22;22676;51.120;3.702;2023-07-30T13:37:49;27.30;42.90
36690;DHT22;22676;51.120;3.702;2023-07-30T13:40:15;27.40;42.90
36690;DHT22;22676;51.120;3.702;2023-07-30T13:42:41;27.50;43.00
36690;DHT22;22676;51.120;3.702;2023-07-30T13:45:06;27.50;42.90
36690;DHT22;22676;51.120;3.702;2023-07-30T13:47:32;27.60;42.90
36690;DHT22;22676;51.120;3.702;2023-07-30T13:49:58;27.60;42.90
36690;DHT22;22676;51.120;3.702;2023-07-30T13:52:23;27.60;42.90
36690;DHT22;22676;51.120;3.702;2023-07-30T13:54:49;27.60;43.00
36690;DHT22;22676;51.120;3.702;2023-07-30T13:57:22;27.60;43.10
36690;DHT22;22676;51.120;3.702;2023-07-30T13:59:50;27.70;43.10
36690;DHT22;22676;51.120;3.702;2023-07-30T14:02:16;27.70;43.10
36690;DHT22;22676;51.120;3.702;2023-07-30T14:04:42;27.70;43.10
36690;DHT22;22676;51.120;3.702;2023-07-30T14:07:07;27.70;43.50
36690;DHT22;22676;51.120;3.702;2023-07-30T14:09:33;27.70;42.60
36690;DHT22;22676;51.120;3.702;2023-07-30T14:12:04;27.70;42.60
36690;DHT22;22676;51.120;3.702;2023-07-30T14:14:30;27.70;42.60
36690;DHT22;22676;51.120;3.702;2023-07-30T14:16:56;27.80;42.60
36690;DHT22;22676;51.120;3.702;2023-07-30T14:19:22;27.80;42.80
36690;DHT22;22676;51.120;3.702;2023-07-30T14:21:48;27.80;42.90
36690;DHT22;22676;51.120;3.702;2023-07-30T14:24:13;27.80;42.90
36690;DHT22;22676;51.120;3.702;2023-07-30T14:26:39;27.80;42.80
36690;DHT22;22676;51.120;3.702;2023-07-30T14:29:05;27.80;42.70
36690;DHT22;22676;51.120;3.702;2023-07-30T14:31:31;27.90;42.60
36690;DHT22;22676;51.120;3.702;2023-07-30T14:33:56;27.80;42.50
36690;DHT22;22676;51.120;3.702;2023-07-30T14:36:23;27.90;42.50
36690;DHT22;22676;51.120;3.702;2023-07-30T14:38:48;27.90;42.60
36690;DHT22;22676;51.120;3.702;2023-07-30T14:41:14;27.90;42.70
36690;DHT22;22676;51.120;3.702;2023-07-30T14:43:40;27.90;42.80
36690;DHT22;22676;51.120;3.702;2023-07-30T14:46:05;27.90;43.00
36690;DHT22;22676;51.120;3.702;2023-07-30T14:48:32;27.80;43.20
36690;DHT22;22676;51.120;3.702;2023-07-30T14:50:57;27.80;43.40
36690;DHT22;22676;51.120;3.702;2023-07-30T14:53:24;27.90;43.60
36690;DHT22;22676;51.120;3.702;2023-07-30T14:55:49;27.80;43.70
36690;DHT22;22676;51.120;3.702;2023-07-30T14:58:15;27.80;43.90
36690;DHT22;22676;51.120;3.702;2023-07-30T15:00:41;27.80;44.30
36690;DHT22;22676;51.120;3.702;2023-07-30T15:03:09;27.70;44.60
36690;DHT22;22676;51.120;3.702;2023-07-30T15:05:35;27.70;45.30
36690;DHT22;22676;51.120;3.702;2023-07-30T15:08:01;27.70;45.70
36690;DHT22;22676;51.120;3.702;2023-07-30T15:10:27;27.60;45.90
36690;DHT22;22676;51.120;3.702;2023-07-30T15:12:53;27.50;46.20
36690;DHT22;22676;51.120;3.702;2023-07-30T15:15:19;27.40;46.70
36690;DHT22;22676;51.120;3.702;2023-07-30T15:17:44;27.40;47.40
36690;DHT22;22676;51.120;3.702;2023-07-30T15:20:10;27.30;48.00
36690;DHT22;22676;51.120;3.702;2023-07-30T15:22:36;27.30;48.40
36690;DHT22;22676;51.120;3.702;2023-07-30T15:25:01;27.20;48.00
36690;DHT22;22676;51.120;3.702;2023-07-30T15:27:28;27.10;48.40
36690;DHT22;22676;51.120;3.702;2023-07-30T15:29:54;27.00;49.20
36690;DHT22;22676;51.120;3.702;2023-07-30T15:32:20;27.00;48.60